createdAt,value
2022-11-11T00:02:37.711Z,2.75
2022-11-11T00:06:39.199Z,2.65
2022-11-11T00:10:40.734Z,2.83
2022-11-11T00:14:42.168Z,2.90
2022-11-11T00:19:03.716Z,2.40
2022-11-11T00:23:23.919Z,2.72
2022-11-11T00:27:25.368Z,2.85
2022-11-11T00:31:26.838Z,3.15
2022-11-11T00:35:46.770Z,3.13
2022-11-11T00:39:48.168Z,3.47
2022-11-11T00:43:49.634Z,2.50
2022-11-11T00:48:09.352Z,3.03
2022-11-11T00:52:10.804Z,3.20
2022-11-11T00:56:12.397Z,2.72
2022-11-11T01:00:14.428Z,3.50
2022-11-11T01:04:15.990Z,3.40
2022-11-11T01:08:17.451Z,3.00
2022-11-11T01:12:19.033Z,2.67
2022-11-11T01:16:23.077Z,3.03
2022-11-11T01:20:24.689Z,2.53
2022-11-11T01:24:26.498Z,3.38
2022-11-11T01:28:28.344Z,3.15
2022-11-11T01:32:30.151Z,3.33
2022-11-11T01:36:31.647Z,3.10
2022-11-11T01:40:44.600Z,3.15
2022-11-11T01:44:47.936Z,2.90
2022-11-11T01:49:11.597Z,2.72
2022-11-11T01:53:13.167Z,3.78
2022-11-11T01:57:25.060Z,3.58
2022-11-11T02:01:26.814Z,3.97
2022-11-11T02:05:45.410Z,3.70
2022-11-11T02:09:48.707Z,3.42
2022-11-11T02:14:08.841Z,4.03
2022-11-11T02:18:11.066Z,3.90
2022-11-11T02:22:23.851Z,3.58
2022-11-11T02:26:26.949Z,3.08
2022-11-11T02:30:28.390Z,3.35
2022-11-11T02:34:32.801Z,3.33
2022-11-11T02:38:34.388Z,3.78
2022-11-11T02:42:36.630Z,3.08
2022-11-11T02:46:38.196Z,4.03
2022-11-11T02:50:39.752Z,3.60
2022-11-11T02:54:43.315Z,4.00
2022-11-11T02:58:44.933Z,3.20
2022-11-11T03:02:46.689Z,3.60
2022-11-11T03:06:48.404Z,3.17
2022-11-11T03:10:50.123Z,3.35
2022-11-11T03:14:51.994Z,3.42
2022-11-11T03:18:53.602Z,3.13
2022-11-11T03:23:15.483Z,3.35
2022-11-11T03:27:17.099Z,3.40
2022-11-11T03:31:18.647Z,3.33
2022-11-11T03:35:20.085Z,3.28
2022-11-11T03:39:21.584Z,3.92
2022-11-11T03:43:28.263Z,3.83
2022-11-11T03:47:29.796Z,3.97
2022-11-11T03:51:31.212Z,4.05
2022-11-11T03:55:32.650Z,4.35
2022-11-11T03:59:34.095Z,3.58
2022-11-11T04:03:54.027Z,4.28
2022-11-11T04:08:13.880Z,4.07
2022-11-11T04:12:15.342Z,3.80
2022-11-11T04:16:16.834Z,3.20
2022-11-11T04:20:36.558Z,3.72
2022-11-11T04:25:16.174Z,4.18
2022-11-11T04:29:29.533Z,3.80
2022-11-11T04:33:30.998Z,3.85
2022-11-11T04:37:35.132Z,3.58
2022-11-11T04:42:01.648Z,3.67
2022-11-11T04:45:59.254Z,4.13
2022-11-11T04:50:06.779Z,4.40
2022-11-11T04:54:08.756Z,3.83
2022-11-11T04:58:10.444Z,4.40
2022-11-11T05:02:30.496Z,4.18
2022-11-11T05:06:52.755Z,3.60
2022-11-11T05:10:54.380Z,4.20
2022-11-11T05:15:14.341Z,4.30
2022-11-11T05:19:34.727Z,3.92
2022-11-11T05:27:57.701Z,3.47
2022-11-11T05:31:59.168Z,3.95
2022-11-11T05:36:00.624Z,3.88
2022-11-11T05:40:02.132Z,3.92
2022-11-11T05:44:03.693Z,4.22
2022-11-11T05:48:05.425Z,3.90
2022-11-11T05:52:07.684Z,3.85
2022-11-11T05:56:09.122Z,3.97
2022-11-11T06:00:11.236Z,3.90
2022-11-11T06:04:17.903Z,3.55
2022-11-11T06:08:19.947Z,3.70
2022-11-11T06:12:21.386Z,4.30
2022-11-11T06:16:23.431Z,3.78
2022-11-11T06:20:24.936Z,4.50
2022-11-11T06:24:27.103Z,4.10
2022-11-11T06:28:28.676Z,3.60
2022-11-11T06:32:30.268Z,4.05
2022-11-11T06:36:31.732Z,3.90
2022-11-11T06:40:33.509Z,4.35
2022-11-11T06:44:34.936Z,5.32
2022-11-11T06:48:37.582Z,4.15
2022-11-11T06:52:39.049Z,4.28
2022-11-11T06:56:40.546Z,4.25
2022-11-11T07:00:42.988Z,3.97
2022-11-11T07:04:44.520Z,3.20
2022-11-11T07:08:46.022Z,4.28
2022-11-11T07:12:47.575Z,3.97
2022-11-11T07:16:48.990Z,4.72
2022-11-11T07:20:50.445Z,4.07
2022-11-11T07:24:52.039Z,5.05
2022-11-11T07:28:53.565Z,3.75
2022-11-11T07:32:55.178Z,4.45
2022-11-11T07:36:56.859Z,4.72
2022-11-11T07:40:58.310Z,4.50
2022-11-11T07:44:59.767Z,4.10
2022-11-11T07:49:01.293Z,4.13
2022-11-11T07:53:02.732Z,4.25
2022-11-11T07:57:04.253Z,3.65
2022-11-11T08:01:08.771Z,4.22
2022-11-11T08:05:10.715Z,4.65
2022-11-11T08:09:12.154Z,3.55
2022-11-11T08:13:45.914Z,4.15
2022-11-11T08:17:47.386Z,3.97
2022-11-11T08:21:48.830Z,3.00
2022-11-11T08:25:50.277Z,4.10
2022-11-11T08:29:51.736Z,3.47
2022-11-11T08:33:54.415Z,4.00
2022-11-11T08:37:55.897Z,2.60
2022-11-11T08:41:57.330Z,3.13
2022-11-11T08:46:04.102Z,3.13
2022-11-11T08:50:06.743Z,3.85
2022-11-11T08:54:08.303Z,2.97
2022-11-11T08:58:10.843Z,2.78
2022-11-11T09:02:13.413Z,3.28
2022-11-11T09:06:15.113Z,4.80
2022-11-11T09:10:16.846Z,3.00
2022-11-11T09:14:18.284Z,3.42
2022-11-11T09:18:20.081Z,3.20
2022-11-11T09:22:21.498Z,2.35
2022-11-11T09:26:23.039Z,2.60
2022-11-11T09:30:30.546Z,2.90
2022-11-11T09:34:32.052Z,3.42
2022-11-11T09:38:33.507Z,2.50
2022-11-11T09:42:42.824Z,2.17
2022-11-11T09:47:01.390Z,2.00
2022-11-11T09:51:05.488Z,3.47
2022-11-11T09:55:19.408Z,2.80
2022-11-11T09:59:36.399Z,2.03
2022-11-11T10:03:49.847Z,2.33
2022-11-11T10:07:58.662Z,2.33
2022-11-11T10:12:06.179Z,2.50
2022-11-11T10:16:21.048Z,2.42
2022-11-11T10:20:31.978Z,1.92
2022-11-11T10:24:43.603Z,2.42
2022-11-11T10:28:52.864Z,1.92
2022-11-11T10:33:26.296Z,1.55
2022-11-11T10:37:40.167Z,2.08
2022-11-11T10:41:49.510Z,1.98
2022-11-11T10:46:01.458Z,2.13
2022-11-11T10:50:13.845Z,2.15
2022-11-11T10:54:23.032Z,2.53
2022-11-11T10:58:53.626Z,2.08
2022-11-11T11:07:00.473Z,2.05
2022-11-11T11:11:08.534Z,1.55
2022-11-11T11:15:23.082Z,1.92
2022-11-11T11:19:26.638Z,2.03
2022-11-11T11:23:47.028Z,2.30
2022-11-11T11:27:50.958Z,2.20
2022-11-11T11:31:53.219Z,1.52
2022-11-11T11:35:54.722Z,2.33
2022-11-11T11:40:01.592Z,1.33
2022-11-11T11:44:03.035Z,2.47
2022-11-11T11:48:41.603Z,2.72
2022-11-11T11:53:15.290Z,2.00
2022-11-11T11:57:41.596Z,1.70
2022-11-11T12:01:51.807Z,2.10
2022-11-11T12:06:14.044Z,1.90
2022-11-11T12:10:28.404Z,1.90
2022-11-11T12:14:50.368Z,1.80
2022-11-11T12:19:15.280Z,2.03
2022-11-11T12:23:29.050Z,1.83
2022-11-11T12:27:54.293Z,1.52
2022-11-11T12:32:21.525Z,1.63
2022-11-11T12:36:55.053Z,1.52
2022-11-11T12:41:27.848Z,1.58
2022-11-11T12:45:40.838Z,1.80
2022-11-11T12:49:56.934Z,2.28
2022-11-11T12:54:04.325Z,1.75
2022-11-11T12:58:38.033Z,1.73
2022-11-11T13:03:04.838Z,1.63
2022-11-11T13:07:32.355Z,1.83
2022-11-11T13:12:17.965Z,1.60
2022-11-11T13:16:23.639Z,2.28
2022-11-11T13:20:56.924Z,2.33
2022-11-11T13:25:04.774Z,2.00
2022-11-11T13:29:28.986Z,1.88
2022-11-11T13:33:48.999Z,1.88
2022-11-11T13:37:50.853Z,2.28
2022-11-11T13:41:55.287Z,1.80
2022-11-11T13:45:59.690Z,1.80
2022-11-11T13:50:09.649Z,1.80
2022-11-11T13:54:34.659Z,2.13
2022-11-11T13:58:47.289Z,2.40
2022-11-11T14:03:10.175Z,1.77
2022-11-11T14:07:49.475Z,2.17
2022-11-11T14:11:50.981Z,1.92
2022-11-11T14:15:54.307Z,1.80
2022-11-11T14:19:55.918Z,1.58
2022-11-11T14:23:57.407Z,1.77
2022-11-11T14:27:58.882Z,2.20
2022-11-11T14:32:22.460Z,1.38
2022-11-11T14:36:46.290Z,1.75
2022-11-11T14:40:48.130Z,2.03
2022-11-11T14:44:49.690Z,1.90
2022-11-11T14:48:51.164Z,2.10
2022-11-11T14:52:54.222Z,1.92
2022-11-11T14:57:03.358Z,1.50
2022-11-11T15:01:15.592Z,1.58
2022-11-11T15:05:25.507Z,1.95
2022-11-11T15:09:38.989Z,1.98
2022-11-11T15:14:04.768Z,2.17
2022-11-11T15:18:14.355Z,2.15
2022-11-11T15:22:33.919Z,4.43
2022-11-11T15:26:44.307Z,2.13
2022-11-11T15:30:57.512Z,2.28
2022-11-11T15:35:26.758Z,2.10
2022-11-11T15:39:38.622Z,2.88
2022-11-11T15:43:40.221Z,2.42
2022-11-11T15:47:41.737Z,2.30
2022-11-11T15:51:43.499Z,2.70
2022-11-11T15:55:52.961Z,2.40
2022-11-11T16:00:01.567Z,3.03
2022-11-11T16:04:22.502Z,3.65
2022-11-11T16:08:31.105Z,3.03
2022-11-11T16:12:45.507Z,5.53
2022-11-11T16:16:47.453Z,3.88
2022-11-11T16:21:09.850Z,3.50
2022-11-11T16:25:21.985Z,3.15
2022-11-11T16:29:29.718Z,2.72
2022-11-11T16:33:32.259Z,2.88
2022-11-11T16:37:51.316Z,3.00
2022-11-11T16:41:54.352Z,2.42
2022-11-11T16:46:09.802Z,2.72
2022-11-11T16:50:17.081Z,2.85
2022-11-11T16:54:21.877Z,3.00
2022-11-11T16:58:23.491Z,3.28
2022-11-11T17:02:25.296Z,2.67
2022-11-11T17:06:48.435Z,2.63
2022-11-11T17:10:50.358Z,3.00
2022-11-11T17:14:56.045Z,3.35
2022-11-11T17:19:00.107Z,3.58
2022-11-11T17:23:06.550Z,9.52
2022-11-11T17:27:09.166Z,4.30
2022-11-11T17:31:12.521Z,4.13
2022-11-11T17:35:16.836Z,3.58
2022-11-11T17:39:18.616Z,3.97
2022-11-11T17:43:20.481Z,4.30
2022-11-11T17:47:22.043Z,4.50
2022-11-11T17:51:24.689Z,3.92
2022-11-11T17:55:26.275Z,4.22
2022-11-11T17:59:29.410Z,4.88
2022-11-11T18:03:31.204Z,4.47
2022-11-11T18:07:33.090Z,6.22
2022-11-11T18:11:36.483Z,5.68
2022-11-11T18:15:37.976Z,5.95
2022-11-11T18:19:39.462Z,8.18
2022-11-11T18:23:40.983Z,6.93
2022-11-11T18:27:42.469Z,7.80
2022-11-11T18:31:43.971Z,6.47
2022-11-11T18:35:45.422Z,6.78
2022-11-11T18:39:46.859Z,7.32
2022-11-11T18:43:49.679Z,8.43
2022-11-11T18:47:51.276Z,6.82
2022-11-11T18:51:52.773Z,6.65
2022-11-11T18:55:54.189Z,6.47
2022-11-11T18:59:55.742Z,6.20
2022-11-11T19:04:02.628Z,5.22
2022-11-11T19:08:05.025Z,6.05
2022-11-11T19:12:06.603Z,10.82
2022-11-11T19:16:11.530Z,7.70
2022-11-11T19:20:12.984Z,6.90
2022-11-11T19:24:15.373Z,5.80
2022-11-11T19:28:16.836Z,5.78
2022-11-11T19:32:18.327Z,4.95
2022-11-11T19:36:23.771Z,5.88
2022-11-11T19:40:25.235Z,5.50
2022-11-11T19:44:26.713Z,6.00
2022-11-11T19:48:28.233Z,5.20
2022-11-11T19:52:30.139Z,4.97
2022-11-11T19:56:31.809Z,5.82
2022-11-11T20:00:33.289Z,5.60
2022-11-11T20:04:34.776Z,5.93
2022-11-11T20:08:36.300Z,6.05
2022-11-11T20:12:37.696Z,4.95
2022-11-11T20:16:39.296Z,4.82
2022-11-11T20:20:40.741Z,5.60
2022-11-11T20:24:42.262Z,4.82
2022-11-11T20:28:44.640Z,4.82
2022-11-11T20:32:46.163Z,4.03
2022-11-11T20:36:47.703Z,4.47
2022-11-11T20:40:58.180Z,5.88
2022-11-11T20:44:59.746Z,4.65
2022-11-11T20:49:01.531Z,6.18
2022-11-11T20:53:02.969Z,5.63
2022-11-11T20:57:04.709Z,4.85
2022-11-11T21:01:12.583Z,4.55
2022-11-11T21:05:16.894Z,4.60
2022-11-11T21:09:18.669Z,4.32
2022-11-11T21:13:20.180Z,4.22
2022-11-11T21:17:21.745Z,4.28
2022-11-11T21:21:32.431Z,4.28
2022-11-11T21:25:34.101Z,3.63
2022-11-11T21:29:35.708Z,3.53
2022-11-11T21:33:37.452Z,3.85
2022-11-11T21:37:38.950Z,3.85
2022-11-11T21:41:41.316Z,3.80
2022-11-11T21:45:42.921Z,4.55
2022-11-11T21:49:44.529Z,4.03
2022-11-11T21:53:52.548Z,4.25
2022-11-11T21:57:54.007Z,3.72
2022-11-11T22:01:55.529Z,3.90
2022-11-11T22:06:01.972Z,4.55
2022-11-11T22:10:03.752Z,4.38
2022-11-11T22:14:06.065Z,3.95
2022-11-11T22:18:07.588Z,4.38
2022-11-11T22:22:08.989Z,4.63
2022-11-11T22:26:12.262Z,4.63
2022-11-11T22:30:13.892Z,4.00
2022-11-11T22:34:15.654Z,4.22
2022-11-11T22:38:17.102Z,3.70
2022-11-11T22:42:18.591Z,3.67
2022-11-11T22:46:21.751Z,4.47
2022-11-11T22:50:23.195Z,4.55
2022-11-11T22:54:24.660Z,4.45
2022-11-11T22:58:26.256Z,6.03
2022-11-11T23:02:27.903Z,7.50
2022-11-11T23:06:32.310Z,4.75
2022-11-11T23:10:33.736Z,4.28
2022-11-11T23:14:35.191Z,4.53
2022-11-11T23:18:36.803Z,3.97
2022-11-11T23:22:38.234Z,4.90
2022-11-11T23:26:39.758Z,4.97
2022-11-11T23:30:41.256Z,5.28
2022-11-11T23:34:42.703Z,3.78
2022-11-11T23:38:44.197Z,4.40
2022-11-11T23:42:45.628Z,3.67
2022-11-11T23:46:47.190Z,3.97
2022-11-11T23:50:49.371Z,4.07
2022-11-11T23:54:50.828Z,4.00
2022-11-11T23:58:52.382Z,3.40
